Time;durP1;ratioP1;P1;durP2;ratioP2;P2;SDS_P1;SDS_P2;PMS_P1;PMS_P2;Temp;Humidity;BMP_temperature;BMP_pressure;BME280_temperature;BME280_humidity;BME280_pressure;Samples;Min_cycle;Max_cycle;Signal;HPM_P1;HPM_P2
2022/04/16 00:00:22;;;;;;;7.57;6.87;;;;;;;;;;5051265;28;20215;-59
2022/04/16 00:02:51;;;;;;;8.43;7.63;;;;;;;;;;5068678;28;20192;-58
2022/04/16 00:05:17;;;;;;;9.37;6.90;;;;;;;;;;5061978;28;20230;-58
2022/04/16 00:07:44;;;;;;;7.97;7.17;;;;;;;;;;5051704;28;20550;-58
2022/04/16 00:10:10;;;;;;;6.80;6.20;;;;;;;;;;5052356;28;20253;-58
2022/04/16 00:12:39;;;;;;;8.83;8.03;;;;;;;;;;5061271;28;20203;-58
2022/04/16 00:15:06;;;;;;;7.77;7.07;;;;;;;;;;5050943;28;20212;-58
2022/04/16 00:17:34;;;;;;;8.30;7.07;;;;;;;;;;5070358;28;20187;-57
2022/04/16 00:20:02;;;;;;;8.80;7.90;;;;;;;;;;5069060;28;20686;-56
2022/04/16 00:22:28;;;;;;;7.57;6.87;;;;;;;;;;5050508;28;20180;-57
2022/04/16 00:24:55;;;;;;;8.07;7.03;;;;;;;;;;5069597;28;20198;-58
2022/04/16 00:27:21;;;;;;;8.53;7.70;;;;;;;;;;5070459;28;20183;-58
2022/04/16 00:29:48;;;;;;;7.60;6.90;;;;;;;;;;5069849;28;20183;-58
2022/04/16 00:32:14;;;;;;;9.60;8.00;;;;;;;;;;5057957;28;20195;-58
2022/04/16 00:34:41;;;;;;;8.63;7.73;;;;;;;;;;5071528;28;20181;-57
2022/04/16 00:37:10;;;;;;;7.87;7.07;;;;;;;;;;5050072;28;20644;-57
2022/04/16 00:39:37;;;;;;;8.47;7.67;;;;;;;;;;5069635;28;20196;-58
2022/04/16 00:42:03;;;;;;;8.20;7.33;;;;;;;;;;5045809;28;20708;-58
2022/04/16 00:44:32;;;;;;;8.37;7.37;;;;;;;;;;5068955;28;20184;-58
2022/04/16 00:46:58;;;;;;;8.77;7.97;;;;;;;;;;5057818;28;20601;-58
2022/04/16 00:49:28;;;;;;;8.20;7.50;;;;;;;;;;5069915;28;20207;-58
2022/04/16 00:51:54;;;;;;;8.03;7.33;;;;;;;;;;5055912;28;20188;-57
2022/04/16 00:54:20;;;;;;;8.97;8.07;;;;;;;;;;5065348;28;20239;-58
2022/04/16 00:56:50;;;;;;;9.43;8.00;;;;;;;;;;5046948;28;20258;-56
2022/04/16 00:59:16;;;;;;;9.13;8.27;;;;;;;;;;5069094;28;20747;-57
2022/04/16 01:01:43;;;;;;;8.50;7.70;;;;;;;;;;5059958;28;20194;-58
2022/04/16 01:04:09;;;;;;;10.17;9.00;;;;;;;;;;5050209;28;20179;-57
2022/04/16 01:06:39;;;;;;;9.97;8.97;;;;;;;;;;5068725;28;20181;-58
2022/04/16 01:09:06;;;;;;;10.30;9.30;;;;;;;;;;5068411;28;20188;-57
2022/04/16 01:11:39;;;;;;;9.03;8.23;;;;;;;;;;5068527;28;20183;-58
2022/04/16 01:14:06;;;;;;;8.97;8.07;;;;;;;;;;5039654;28;20181;-59
2022/04/16 01:16:36;;;;;;;11.17;9.90;;;;;;;;;;5050655;28;20398;-58
2022/04/16 01:19:03;;;;;;;10.17;9.00;;;;;;;;;;5059795;28;20610;-59
2022/04/16 01:21:33;;;;;;;10.27;9.07;;;;;;;;;;5055577;28;20226;-59
2022/04/16 01:23:59;;;;;;;10.00;8.87;;;;;;;;;;5050078;28;21545;-58
2022/04/16 01:26:26;;;;;;;10.97;9.33;;;;;;;;;;5058291;28;20195;-58
2022/04/16 01:28:58;;;;;;;10.43;9.43;;;;;;;;;;5046580;28;20192;-58
2022/04/16 01:31:25;;;;;;;10.50;9.37;;;;;;;;;;5059050;28;20196;-58
2022/04/16 01:33:51;;;;;;;10.80;9.70;;;;;;;;;;5068028;28;20184;-58
2022/04/16 01:36:18;;;;;;;10.63;9.53;;;;;;;;;;5057417;28;20314;-58
2022/04/16 01:38:47;;;;;;;9.83;8.93;;;;;;;;;;5059349;28;20578;-59
2022/04/16 01:41:16;;;;;;;9.33;8.43;;;;;;;;;;5060246;28;20568;-58
2022/04/16 01:43:42;;;;;;;11.57;9.00;;;;;;;;;;5049441;28;20411;-59
2022/04/16 01:46:12;;;;;;;9.50;8.63;;;;;;;;;;5061050;28;20506;-57
2022/04/16 01:48:38;;;;;;;10.67;9.67;;;;;;;;;;5048665;28;20273;-58
2022/04/16 01:51:07;;;;;;;9.90;8.90;;;;;;;;;;5071627;28;20254;-58
2022/04/16 01:53:36;;;;;;;9.90;9.00;;;;;;;;;;5050874;28;20181;-58
2022/04/16 01:56:06;;;;;;;11.77;10.03;;;;;;;;;;5045045;28;20188;-59
2022/04/16 01:58:32;;;;;;;10.83;9.73;;;;;;;;;;5046947;28;20276;-58
2022/04/16 02:00:59;;;;;;;11.23;9.80;;;;;;;;;;5050126;28;20180;-59
2022/04/16 02:03:27;;;;;;;11.07;10.07;;;;;;;;;;5067719;28;20176;-58
2022/04/16 02:06:02;;;;;;;10.10;9.10;;;;;;;;;;5050482;28;20690;-57
2022/04/16 02:08:31;;;;;;;11.07;9.87;;;;;;;;;;5066121;28;20191;-58
2022/04/16 02:10:57;;;;;;;10.30;9.17;;;;;;;;;;5067964;28;20616;-57
2022/04/16 02:13:23;;;;;;;11.73;10.53;;;;;;;;;;5074333;28;20180;-58
2022/04/16 02:15:50;;;;;;;11.43;9.53;;;;;;;;;;5055005;28;20225;-58
2022/04/16 02:18:16;;;;;;;10.57;9.53;;;;;;;;;;5044818;28;20233;-59
2022/04/16 02:20:44;;;;;;;9.77;8.77;;;;;;;;;;5050259;28;20184;-58
2022/04/16 02:23:13;;;;;;;10.40;9.30;;;;;;;;;;5055771;28;20184;-57
2022/04/16 02:25:41;;;;;;;10.70;9.67;;;;;;;;;;5048466;28;20780;-59
2022/04/16 02:28:08;;;;;;;10.47;9.17;;;;;;;;;;5068484;28;20188;-57
2022/04/16 02:30:34;;;;;;;10.97;9.83;;;;;;;;;;5068239;28;20177;-58
2022/04/16 02:33:02;;;;;;;10.83;9.80;;;;;;;;;;5050108;28;20908;-57
2022/04/16 02:35:28;;;;;;;13.93;10.13;;;;;;;;;;5068018;28;20267;-58
2022/04/16 02:37:58;;;;;;;11.57;10.37;;;;;;;;;;5048911;28;20295;-58
2022/04/16 02:40:27;;;;;;;12.47;10.43;;;;;;;;;;5050640;28;20220;-58
2022/04/16 02:42:53;;;;;;;10.73;9.63;;;;;;;;;;5049836;28;20179;-58
2022/04/16 02:48:05;;;;;;;11.30;9.50;;;;;;;;;;5067179;28;20191;-59
2022/04/16 02:50:37;;;;;;;11.37;10.17;;;;;;;;;;5047487;28;20192;-58
2022/04/16 02:53:03;;;;;;;11.33;9.90;;;;;;;;;;5042772;28;20187;-57
2022/04/16 02:55:33;;;;;;;14.43;10.97;;;;;;;;;;5066753;28;20184;-58
2022/04/16 02:57:59;;;;;;;11.67;10.47;;;;;;;;;;5067711;28;20184;-58
2022/04/16 03:00:26;;;;;;;10.40;9.40;;;;;;;;;;5067755;28;20302;-60
2022/04/16 03:02:56;;;;;;;11.60;9.73;;;;;;;;;;5048285;28;20234;-59
2022/04/16 03:05:26;;;;;;;11.97;10.83;;;;;;;;;;5048218;28;20258;-59
2022/04/16 03:07:52;;;;;;;11.97;10.73;;;;;;;;;;5047441;28;20207;-57
2022/04/16 03:10:19;;;;;;;11.90;10.70;;;;;;;;;;5055368;28;20206;-58
2022/04/16 03:12:46;;;;;;;11.47;10.03;;;;;;;;;;5065556;28;20188;-58
2022/04/16 03:18:00;;;;;;;12.47;11.27;;;;;;;;;;5063396;28;20224;-58
2022/04/16 03:20:29;;;;;;;11.67;10.47;;;;;;;;;;5047965;28;20211;-60
2022/04/16 03:22:56;;;;;;;11.63;10.50;;;;;;;;;;5061626;28;20179;-58
2022/04/16 03:25:25;;;;;;;13.20;11.13;;;;;;;;;;5048139;28;20176;-58
2022/04/16 03:27:55;;;;;;;12.97;10.60;;;;;;;;;;5048314;28;20195;-57
2022/04/16 03:30:23;;;;;;;13.37;10.63;;;;;;;;;;5048151;28;20249;-59
2022/04/16 03:32:50;;;;;;;14.10;11.40;;;;;;;;;;5050523;28;20547;-59
2022/04/16 03:35:19;;;;;;;12.53;11.33;;;;;;;;;;5060096;28;20667;-57
2022/04/16 03:37:45;;;;;;;12.00;10.67;;;;;;;;;;5047575;28;20188;-58
2022/04/16 03:40:19;;;;;;;14.40;13.00;;;;;;;;;;5048842;28;20651;-58
2022/04/16 03:42:52;;;;;;;12.83;11.60;;;;;;;;;;5044346;28;20528;-59
2022/04/16 03:45:23;;;;;;;12.20;10.97;;;;;;;;;;5047875;28;20665;-58
2022/04/16 03:47:55;;;;;;;12.87;11.57;;;;;;;;;;5046394;28;20488;-58
2022/04/16 03:50:22;;;;;;;12.77;11.57;;;;;;;;;;5046243;28;20328;-58
2022/04/16 03:52:49;;;;;;;12.27;10.97;;;;;;;;;;5046739;28;20204;-58
2022/04/16 04:00:49;;;;;;;13.27;11.90;;;;;;;;;;5066640;28;20231;-58
2022/04/16 04:03:20;;;;;;;15.93;14.53;;;;;;;;;;5039552;28;20209;-60
2022/04/16 04:05:48;;;;;;;14.25;12.85;;;;;;;;;;5036508;28;21007;-58
2022/04/16 04:08:15;;;;;;;14.13;12.67;;;;;;;;;;5047560;28;20180;-58
2022/04/16 04:10:41;;;;;;;12.83;11.53;;;;;;;;;;5048202;28;20188;-58
2022/04/16 04:13:11;;;;;;;13.93;12.37;;;;;;;;;;5051409;28;20302;-58
2022/04/16 04:15:37;;;;;;;12.50;11.10;;;;;;;;;;5049916;28;20375;-57
2022/04/16 04:18:04;;;;;;;12.87;11.57;;;;;;;;;;5048336;28;20676;-57
2022/04/16 04:20:34;;;;;;;15.03;11.93;;;;;;;;;;5053527;28;20208;-58
2022/04/16 04:23:13;;;;;;;12.77;11.50;;;;;;;;;;5051602;28;20305;-58
2022/04/16 04:25:40;;;;;;;13.10;11.63;;;;;;;;;;5056730;28;21081;-57
2022/04/16 04:28:06;;;;;;;12.63;11.50;;;;;;;;;;5050013;28;20183;-58
2022/04/16 04:30:33;;;;;;;13.37;11.73;;;;;;;;;;5051449;28;20302;-59
2022/04/16 04:33:05;;;;;;;13.40;12.00;;;;;;;;;;5051245;28;20183;-57
2022/04/16 04:35:32;;;;;;;12.73;11.53;;;;;;;;;;5071383;28;20605;-57
2022/04/16 04:37:58;;;;;;;13.43;11.30;;;;;;;;;;5052660;28;20192;-57
2022/04/16 04:40:29;;;;;;;13.03;11.73;;;;;;;;;;5050994;28;20204;-58
2022/04/16 04:42:55;;;;;;;12.43;11.17;;;;;;;;;;5051534;28;20181;-58
2022/04/16 04:45:21;;;;;;;13.30;11.90;;;;;;;;;;5068464;28;20176;-58
2022/04/16 04:47:53;;;;;;;13.83;12.43;;;;;;;;;;5052037;28;20177;-58
2022/04/16 04:50:26;;;;;;;11.73;10.53;;;;;;;;;;5049936;28;20187;-59
2022/04/16 04:52:58;;;;;;;12.27;11.00;;;;;;;;;;5047434;28;20204;-57
2022/04/16 04:55:25;;;;;;;14.33;11.93;;;;;;;;;;5044663;28;20203;-57
2022/04/16 04:57:54;;;;;;;13.13;10.80;;;;;;;;;;5050196;28;20196;-58
2022/04/16 05:00:23;;;;;;;14.63;13.23;;;;;;;;;;5048186;28;20204;-58
2022/04/16 05:02:50;;;;;;;12.77;11.47;;;;;;;;;;5048716;28;20173;-58
2022/04/16 05:05:17;;;;;;;13.03;11.13;;;;;;;;;;5049227;28;20203;-58
2022/04/16 05:07:44;;;;;;;14.13;12.30;;;;;;;;;;5069464;28;20172;-58
2022/04/16 05:10:10;;;;;;;13.80;12.40;;;;;;;;;;5050360;28;20180;-59
2022/04/16 05:12:37;;;;;;;12.80;11.47;;;;;;;;;;5047059;28;20296;-57
2022/04/16 05:15:04;;;;;;;14.30;12.73;;;;;;;;;;5049783;28;20220;-58
2022/04/16 05:17:37;;;;;;;13.77;12.13;;;;;;;;;;5047106;28;20173;-57
2022/04/16 05:20:06;;;;;;;14.23;12.73;;;;;;;;;;5042391;28;20192;-58
2022/04/16 05:22:35;;;;;;;13.30;11.90;;;;;;;;;;5047581;28;20189;-58
2022/04/16 05:25:05;;;;;;;13.93;12.43;;;;;;;;;;5068017;28;20172;-59
2022/04/16 05:27:34;;;;;;;13.87;12.30;;;;;;;;;;5066996;28;20267;-57
2022/04/16 05:30:07;;;;;;;18.90;12.50;;;;;;;;;;5043456;28;20189;-58
2022/04/16 05:32:40;;;;;;;13.77;12.37;;;;;;;;;;5049689;28;20655;-57
2022/04/16 05:35:13;;;;;;;13.93;12.43;;;;;;;;;;5047044;28;20176;-58
2022/04/16 05:37:40;;;;;;;13.57;12.17;;;;;;;;;;5044064;28;20230;-58
2022/04/16 05:40:07;;;;;;;14.50;13.00;;;;;;;;;;5057490;28;20672;-58
2022/04/16 05:42:38;;;;;;;13.40;12.07;;;;;;;;;;5059740;28;20287;-58
2022/04/16 05:45:05;;;;;;;14.90;13.30;;;;;;;;;;5044284;28;20674;-58
2022/04/16 05:47:31;;;;;;;15.80;13.77;;;;;;;;;;5040101;28;20212;-58
2022/04/16 05:50:00;;;;;;;14.53;13.03;;;;;;;;;;5030830;28;20235;-58
2022/04/16 05:52:27;;;;;;;15.23;13.63;;;;;;;;;;5046144;28;20172;-58
2022/04/16 05:54:53;;;;;;;15.63;13.13;;;;;;;;;;5060634;28;20660;-57
2022/04/16 05:57:21;;;;;;;15.70;13.97;;;;;;;;;;5063502;28;20185;-58
2022/04/16 05:59:49;;;;;;;17.40;14.40;;;;;;;;;;5049662;28;20204;-59
2022/04/16 06:02:15;;;;;;;16.20;13.27;;;;;;;;;;5046261;28;20188;-59
2022/04/16 06:04:45;;;;;;;17.90;13.83;;;;;;;;;;5030636;28;20181;-59
2022/04/16 06:07:16;;;;;;;15.50;13.70;;;;;;;;;;5034239;28;20169;-59
2022/04/16 06:09:42;;;;;;;15.53;13.70;;;;;;;;;;5034532;28;20181;-59
2022/04/16 06:12:09;;;;;;;16.53;14.77;;;;;;;;;;5065460;28;20181;-58
2022/04/16 06:14:36;;;;;;;16.40;14.70;;;;;;;;;;5035553;28;20233;-58
2022/04/16 06:17:02;;;;;;;16.77;14.53;;;;;;;;;;5039978;28;20192;-58
2022/04/16 06:19:29;;;;;;;16.73;14.90;;;;;;;;;;5046851;28;20305;-58
2022/04/16 06:21:55;;;;;;;16.83;14.87;;;;;;;;;;5068301;28;20249;-58
2022/04/16 06:24:25;;;;;;;18.50;15.60;;;;;;;;;;5050675;28;20629;-58
2022/04/16 06:26:52;;;;;;;19.03;15.17;;;;;;;;;;5046995;28;20486;-57
2022/04/16 06:29:21;;;;;;;15.47;13.30;;;;;;;;;;5057789;28;20583;-60
2022/04/16 06:31:47;;;;;;;18.47;16.17;;;;;;;;;;5071975;28;20213;-58
2022/04/16 06:34:14;;;;;;;18.30;14.47;;;;;;;;;;5053815;28;20184;-59
2022/04/16 06:36:40;;;;;;;17.30;15.43;;;;;;;;;;5068004;28;20188;-58
2022/04/16 06:39:06;;;;;;;16.97;15.00;;;;;;;;;;5049586;28;20567;-57
2022/04/16 06:41:32;;;;;;;17.73;14.73;;;;;;;;;;5065657;28;20172;-57
2022/04/16 06:43:59;;;;;;;16.37;13.47;;;;;;;;;;5043361;28;20176;-58
2022/04/16 06:46:25;;;;;;;16.23;14.43;;;;;;;;;;5049676;28;20660;-58
2022/04/16 06:48:51;;;;;;;16.93;15.13;;;;;;;;;;5054825;28;20180;-58
2022/04/16 06:51:18;;;;;;;17.60;14.17;;;;;;;;;;5041330;28;20246;-58
2022/04/16 06:53:44;;;;;;;16.37;14.67;;;;;;;;;;5031129;28;20766;-58
2022/04/16 06:56:14;;;;;;;16.10;14.10;;;;;;;;;;5044353;28;20176;-58
2022/04/16 06:58:40;;;;;;;15.13;13.33;;;;;;;;;;5048852;28;20215;-59
2022/04/16 07:01:07;;;;;;;15.13;13.50;;;;;;;;;;5067842;28;20184;-59
2022/04/16 07:03:33;;;;;;;14.90;13.30;;;;;;;;;;5034470;28;20184;-58
2022/04/16 07:06:00;;;;;;;18.03;13.93;;;;;;;;;;5035628;28;20516;-58
2022/04/16 07:08:26;;;;;;;15.63;14.03;;;;;;;;;;5051004;28;20184;-58
2022/04/16 07:10:52;;;;;;;14.00;12.50;;;;;;;;;;5053663;28;20532;-58
2022/04/16 07:13:19;;;;;;;13.27;11.73;;;;;;;;;;5063625;28;20184;-57
2022/04/16 07:15:45;;;;;;;14.13;12.00;;;;;;;;;;5046339;28;20223;-57
2022/04/16 07:18:12;;;;;;;14.83;12.97;;;;;;;;;;5046692;28;20203;-56
2022/04/16 07:20:38;;;;;;;13.83;11.97;;;;;;;;;;5041225;28;20204;-57
2022/04/16 07:23:05;;;;;;;16.80;11.37;;;;;;;;;;5048402;28;20688;-58
2022/04/16 07:25:31;;;;;;;13.93;12.13;;;;;;;;;;5055517;28;20204;-57
2022/04/16 07:27:58;;;;;;;13.40;12.00;;;;;;;;;;5046705;28;20180;-58
2022/04/16 07:30:24;;;;;;;14.17;12.67;;;;;;;;;;5062802;28;20207;-59
2022/04/16 07:32:51;;;;;;;14.70;11.57;;;;;;;;;;5062742;28;20183;-59
2022/04/16 07:35:17;;;;;;;13.27;11.97;;;;;;;;;;5046632;28;20594;-57
2022/04/16 07:37:43;;;;;;;14.30;12.80;;;;;;;;;;5068313;28;20643;-58
2022/04/16 07:40:10;;;;;;;15.23;12.57;;;;;;;;;;5046421;28;20208;-58
2022/04/16 07:42:36;;;;;;;13.23;11.83;;;;;;;;;;5061926;28;20184;-59
2022/04/16 07:45:03;;;;;;;13.60;12.07;;;;;;;;;;5060290;28;20184;-59
2022/04/16 07:47:29;;;;;;;14.70;12.77;;;;;;;;;;5052195;28;20455;-58
2022/04/16 07:49:55;;;;;;;13.27;11.87;;;;;;;;;;5050523;28;20196;-58
2022/04/16 07:52:24;;;;;;;15.23;12.80;;;;;;;;;;5053970;28;20183;-59
2022/04/16 07:54:51;;;;;;;13.17;11.57;;;;;;;;;;5064828;28;20228;-59
2022/04/16 07:57:20;;;;;;;12.87;11.50;;;;;;;;;;5065753;28;20208;-59
2022/04/16 07:59:46;;;;;;;12.63;11.33;;;;;;;;;;5063254;28;20197;-59
2022/04/16 08:02:13;;;;;;;13.70;10.73;;;;;;;;;;5052589;28;20184;-58
2022/04/16 08:04:41;;;;;;;14.77;11.30;;;;;;;;;;5056415;28;20188;-58
2022/04/16 08:07:07;;;;;;;13.47;11.20;;;;;;;;;;5046575;28;20180;-58
2022/04/16 08:09:34;;;;;;;12.67;11.37;;;;;;;;;;5048514;28;20240;-60
2022/04/16 08:12:00;;;;;;;12.63;10.90;;;;;;;;;;5077377;28;20199;-54
2022/04/16 08:14:26;;;;;;;13.23;11.07;;;;;;;;;;5053405;28;20217;-54
2022/04/16 08:16:53;;;;;;;10.80;9.70;;;;;;;;;;5065874;28;20245;-54
2022/04/16 08:19:19;;;;;;;10.97;9.83;;;;;;;;;;5074731;28;20201;-53
2022/04/16 08:21:46;;;;;;;11.33;9.17;;;;;;;;;;5071387;28;20202;-51
2022/04/16 08:27:00;;;;;;;9.30;8.30;;;;;;;;;;5071647;28;20262;-51
2022/04/16 08:29:27;;;;;;;10.00;8.97;;;;;;;;;;5046618;28;20201;-52
2022/04/16 08:31:56;;;;;;;9.97;8.97;;;;;;;;;;5051717;28;20187;-50
2022/04/16 08:34:22;;;;;;;9.73;8.67;;;;;;;;;;5064615;28;20179;-51
2022/04/16 08:36:48;;;;;;;7.57;6.87;;;;;;;;;;5057470;28;20180;-51
2022/04/16 08:39:15;;;;;;;7.93;7.10;;;;;;;;;;5068042;28;20671;-51
2022/04/16 08:41:42;;;;;;;8.23;7.10;;;;;;;;;;5048077;28;20699;-51
2022/04/16 08:44:09;;;;;;;8.67;7.87;;;;;;;;;;5037555;28;20587;-51
2022/04/16 08:46:35;;;;;;;9.50;7.07;;;;;;;;;;5056855;28;20607;-51
2022/04/16 08:49:02;;;;;;;7.83;7.13;;;;;;;;;;5057438;28;20184;-51
2022/04/16 08:51:28;;;;;;;8.37;7.63;;;;;;;;;;5070029;28;20194;-52
2022/04/16 08:53:55;;;;;;;8.80;7.93;;;;;;;;;;5052208;28;20186;-51
2022/04/16 08:56:21;;;;;;;8.17;7.37;;;;;;;;;;5050915;28;20566;-52
2022/04/16 08:58:47;;;;;;;9.80;8.73;;;;;;;;;;5068218;28;20304;-52
2022/04/16 09:01:13;;;;;;;8.90;8.10;;;;;;;;;;5053083;28;20572;-52
2022/04/16 09:03:41;;;;;;;8.63;7.77;;;;;;;;;;5067325;28;20182;-52
2022/04/16 09:06:08;;;;;;;8.47;7.67;;;;;;;;;;5050645;28;20569;-51
2022/04/16 09:08:35;;;;;;;8.23;7.43;;;;;;;;;;5067306;28;20190;-51
2022/04/16 09:11:10;;;;;;;9.80;7.83;;;;;;;;;;5064737;28;20725;-52
2022/04/16 09:13:36;;;;;;;7.63;6.93;;;;;;;;;;5049243;28;20184;-52
2022/04/16 09:16:10;;;;;;;6.87;6.27;;;;;;;;;;5065709;28;20210;-52
2022/04/16 09:18:46;;;;;;;7.10;6.50;;;;;;;;;;5066270;28;20642;-52
2022/04/16 09:21:15;;;;;;;6.93;6.33;;;;;;;;;;5046242;28;20268;-52
2022/04/16 09:23:50;;;;;;;7.80;6.90;;;;;;;;;;5052927;28;20199;-52
2022/04/16 09:26:33;;;;;;;6.87;6.17;;;;;;;;;;5051011;28;20709;-51
2022/04/16 09:29:06;;;;;;;6.90;6.23;;;;;;;;;;5069178;28;20307;-51
2022/04/16 09:31:33;;;;;;;5.23;4.83;;;;;;;;;;5045218;28;20184;-49
2022/04/16 09:33:59;;;;;;;5.70;5.20;;;;;;;;;;5066620;28;20636;-51
2022/04/16 09:36:26;;;;;;;6.40;5.80;;;;;;;;;;5048718;28;20644;-51
2022/04/16 09:39:05;;;;;;;7.13;6.43;;;;;;;;;;5064469;28;20209;-51
2022/04/16 09:41:32;;;;;;;5.70;5.20;;;;;;;;;;5057766;28;20647;-52
2022/04/16 09:43:59;;;;;;;5.50;5.00;;;;;;;;;;5049661;28;20176;-52
2022/04/16 09:46:27;;;;;;;5.47;4.97;;;;;;;;;;5060886;28;20180;-52
2022/04/16 09:48:59;;;;;;;5.37;4.87;;;;;;;;;;5058167;28;20196;-52
2022/04/16 09:51:25;;;;;;;6.17;5.60;;;;;;;;;;5063974;28;20181;-52
2022/04/16 09:53:53;;;;;;;5.10;4.70;;;;;;;;;;5064347;28;20183;-51
2022/04/16 09:56:20;;;;;;;5.17;4.67;;;;;;;;;;5066062;28;20188;-52
2022/04/16 09:58:52;;;;;;;4.77;4.37;;;;;;;;;;5069003;28;20575;-51
2022/04/16 10:01:20;;;;;;;6.57;4.67;;;;;;;;;;5050504;28;20679;-51
2022/04/16 10:03:47;;;;;;;5.47;4.97;;;;;;;;;;5048052;28;20185;-51
2022/04/16 10:06:14;;;;;;;6.13;4.73;;;;;;;;;;5065266;28;20184;-53
2022/04/16 10:08:40;;;;;;;5.13;4.63;;;;;;;;;;5033794;28;20276;-53
2022/04/16 10:11:08;;;;;;;5.17;4.67;;;;;;;;;;5049698;28;20971;-53
2022/04/16 10:13:45;;;;;;;5.10;4.60;;;;;;;;;;5067931;28;20186;-52
2022/04/16 10:16:14;;;;;;;5.37;4.60;;;;;;;;;;5047279;28;21148;-51
2022/04/16 10:18:42;;;;;;;9.63;5.43;;;;;;;;;;5063496;28;20180;-53
2022/04/16 10:21:15;;;;;;;6.60;5.10;;;;;;;;;;5064976;28;20722;-52
2022/04/16 10:23:41;;;;;;;9.48;6.05;;;;;;;;;;5057665;28;20458;-53
2022/04/16 10:26:11;;;;;;;5.53;5.03;;;;;;;;;;5049966;28;20183;-54
2022/04/16 10:28:44;;;;;;;5.63;5.00;;;;;;;;;;5063787;28;20624;-52
2022/04/16 10:32:16;;;;;;;5.43;4.43;;;;;;;;;;5062455;27;20635;-53
2022/04/16 10:34:42;;;;;;;4.93;4.53;;;;;;;;;;5051927;28;20189;-52
2022/04/16 10:37:09;;;;;;;6.93;5.23;;;;;;;;;;5043625;28;20300;-51
2022/04/16 10:39:36;;;;;;;21.03;6.17;;;;;;;;;;5045897;28;20199;-51
2022/04/16 10:42:04;;;;;;;5.90;5.30;;;;;;;;;;5044844;28;20199;-52
2022/04/16 10:44:31;;;;;;;6.43;5.73;;;;;;;;;;5047920;28;20191;-53
2022/04/16 10:46:59;;;;;;;7.40;5.40;;;;;;;;;;5041252;28;20197;-53
2022/04/16 10:49:28;;;;;;;5.37;4.87;;;;;;;;;;5040483;28;20641;-53
2022/04/16 10:51:55;;;;;;;5.13;4.63;;;;;;;;;;5057859;28;20209;-52
2022/04/16 10:54:32;;;;;;;5.90;5.30;;;;;;;;;;5042269;28;20680;-52
2022/04/16 10:56:59;;;;;;;7.53;5.63;;;;;;;;;;5041547;28;20695;-52
2022/04/16 10:59:41;;;;;;;6.37;5.67;;;;;;;;;;5036745;28;20292;-53
2022/04/16 11:02:23;;;;;;;6.07;5.47;;;;;;;;;;5033490;28;20189;-52
2022/04/16 11:05:15;;;;;;;6.23;5.63;;;;;;;;;;5029317;28;20585;-52
2022/04/16 11:07:42;;;;;;;6.57;5.97;;;;;;;;;;5025220;28;20723;-52
2022/04/16 11:10:09;;;;;;;11.43;6.03;;;;;;;;;;5033010;28;20657;-52
2022/04/16 11:12:39;;;;;;;39.67;9.33;;;;;;;;;;5038774;28;20268;-52
2022/04/16 11:15:24;;;;;;;34.03;8.33;;;;;;;;;;5033140;28;20182;-51
2022/04/16 11:18:01;;;;;;;10.83;6.67;;;;;;;;;;5024125;28;20236;-51
2022/04/16 11:20:28;;;;;;;15.70;7.67;;;;;;;;;;5033893;28;20181;-51
2022/04/16 11:22:55;;;;;;;11.53;7.70;;;;;;;;;;5028348;28;20196;-51
2022/04/16 11:25:25;;;;;;;9.97;5.93;;;;;;;;;;5036249;28;20193;-51
2022/04/16 11:36:11;;;;;;;8.07;5.90;;;;;;;;;;5033742;28;20248;-52
2022/04/16 11:38:41;;;;;;;6.27;5.67;;;;;;;;;;5029207;28;20185;-51
2022/04/16 11:41:11;;;;;;;7.77;6.23;;;;;;;;;;5034355;28;20707;-51
2022/04/16 11:43:45;;;;;;;7.22;6.53;;;;;;;;;;5021559;28;20436;-52
2022/04/16 11:46:13;;;;;;;7.83;6.33;;;;;;;;;;5037271;28;20719;-52
2022/04/16 11:48:46;;;;;;;5.77;5.27;;;;;;;;;;5004520;28;21045;-52
2022/04/16 11:51:13;;;;;;;11.87;6.13;;;;;;;;;;5029869;28;20194;-52
2022/04/16 11:53:43;;;;;;;6.07;5.57;;;;;;;;;;5013856;28;20212;-52
2022/04/16 11:56:10;;;;;;;6.20;5.60;;;;;;;;;;5016087;28;20214;-52
2022/04/16 11:58:36;;;;;;;5.80;5.30;;;;;;;;;;5014183;28;20811;-51
2022/04/16 12:01:03;;;;;;;6.57;5.57;;;;;;;;;;5016730;28;20202;-52
2022/04/16 12:03:40;;;;;;;5.57;5.07;;;;;;;;;;5010390;28;20183;-51
2022/04/16 12:06:13;;;;;;;7.97;5.40;;;;;;;;;;5015898;28;20185;-52
2022/04/16 12:08:43;;;;;;;5.37;4.87;;;;;;;;;;5021893;28;20213;-52
2022/04/16 12:11:10;;;;;;;7.23;5.20;;;;;;;;;;5025325;28;20274;-52
2022/04/16 12:13:40;;;;;;;5.13;4.63;;;;;;;;;;5020430;28;20282;-52
2022/04/16 12:16:11;;;;;;;5.50;5.00;;;;;;;;;;5014585;28;20182;-52
2022/04/16 12:18:38;;;;;;;5.40;4.90;;;;;;;;;;5015606;28;20576;-52
2022/04/16 12:21:11;;;;;;;5.23;4.77;;;;;;;;;;5007679;28;20591;-52
2022/04/16 12:23:38;;;;;;;4.43;4.03;;;;;;;;;;5016172;28;20672;-52
2022/04/16 12:26:05;;;;;;;5.07;4.67;;;;;;;;;;5016589;28;20240;-53
2022/04/16 12:28:36;;;;;;;4.80;4.40;;;;;;;;;;5017674;28;20171;-53
2022/04/16 12:31:02;;;;;;;5.50;5.00;;;;;;;;;;5011633;28;20245;-53
2022/04/16 12:33:28;;;;;;;5.43;4.47;;;;;;;;;;5007610;28;20185;-53
2022/04/16 12:35:57;;;;;;;5.70;5.20;;;;;;;;;;5016071;28;20174;-54
2022/04/16 12:38:25;;;;;;;4.43;4.03;;;;;;;;;;5029501;28;20179;-57
2022/04/16 12:41:11;;;;;;;5.17;4.67;;;;;;;;;;5014167;28;20269;-54
2022/04/16 12:43:38;;;;;;;4.53;4.13;;;;;;;;;;5017819;28;20185;-55
2022/04/16 12:46:04;;;;;;;7.60;4.93;;;;;;;;;;5018595;28;20182;-55
2022/04/16 12:48:30;;;;;;;5.17;4.67;;;;;;;;;;5012260;28;20627;-54
2022/04/16 12:50:56;;;;;;;6.27;5.23;;;;;;;;;;5015359;28;20860;-54
2022/04/16 12:53:25;;;;;;;5.70;5.13;;;;;;;;;;5014434;28;20189;-55
2022/04/16 12:55:52;;;;;;;4.90;4.20;;;;;;;;;;5030105;28;20172;-54
2022/04/16 12:58:18;;;;;;;4.57;4.17;;;;;;;;;;5018992;28;20194;-54
2022/04/16 13:00:47;;;;;;;5.87;4.33;;;;;;;;;;5017056;28;20182;-56
2022/04/16 13:03:14;;;;;;;9.27;5.67;;;;;;;;;;5024121;28;20288;-56
2022/04/16 13:05:40;;;;;;;5.37;4.77;;;;;;;;;;5013089;28;20244;-51
2022/04/16 13:08:07;;;;;;;4.77;4.30;;;;;;;;;;5008571;28;20273;-51
2022/04/16 13:10:33;;;;;;;7.80;4.90;;;;;;;;;;5022196;28;20561;-51
2022/04/16 13:13:01;;;;;;;5.07;4.47;;;;;;;;;;5031310;28;20313;-52
2022/04/16 13:15:27;;;;;;;4.50;4.10;;;;;;;;;;5019774;28;20179;-51
2022/04/16 13:17:53;;;;;;;7.37;4.30;;;;;;;;;;5008462;28;20195;-51
2022/04/16 13:20:19;;;;;;;5.63;4.60;;;;;;;;;;5015559;28;20236;-52
2022/04/16 13:22:46;;;;;;;6.00;3.63;;;;;;;;;;5008743;28;20186;-49
2022/04/16 13:25:12;;;;;;;5.30;3.77;;;;;;;;;;5015862;28;20234;-52
2022/04/16 13:27:38;;;;;;;5.93;4.27;;;;;;;;;;5011341;28;20186;-51
2022/04/16 13:30:05;;;;;;;4.27;3.87;;;;;;;;;;5012446;28;20184;-53
2022/04/16 13:32:31;;;;;;;4.60;4.20;;;;;;;;;;5013655;28;20182;-53
2022/04/16 13:34:57;;;;;;;4.90;4.40;;;;;;;;;;5019043;28;20680;-53
2022/04/16 13:37:24;;;;;;;9.50;4.33;;;;;;;;;;5022500;28;20229;-53
2022/04/16 13:42:35;;;;;;;4.20;3.80;;;;;;;;;;5017602;28;20710;-53
2022/04/16 13:45:01;;;;;;;3.90;3.60;;;;;;;;;;5038377;28;20187;-53
2022/04/16 13:47:28;;;;;;;4.13;3.33;;;;;;;;;;5016131;28;20425;-53
2022/04/16 13:49:54;;;;;;;4.00;3.40;;;;;;;;;;5018294;28;20209;-53
2022/04/16 13:52:20;;;;;;;4.00;3.60;;;;;;;;;;5017897;28;20186;-52
2022/04/16 13:54:47;;;;;;;4.67;4.27;;;;;;;;;;5021554;28;20196;-52
2022/04/16 13:57:13;;;;;;;4.40;4.10;;;;;;;;;;5013677;28;20670;-53
2022/04/16 13:59:40;;;;;;;6.63;6.23;;;;;;;;;;5007990;28;20186;-52
2022/04/16 14:02:07;;;;;;;5.13;4.73;;;;;;;;;;5012884;28;20691;-52
2022/04/16 14:07:18;;;;;;;4.80;3.27;;;;;;;;;;5020807;28;20225;-53
2022/04/16 14:09:44;;;;;;;3.40;3.10;;;;;;;;;;5022429;28;20182;-53
2022/04/16 14:12:13;;;;;;;3.60;3.30;;;;;;;;;;5025514;28;20651;-52
2022/04/16 14:14:39;;;;;;;4.50;3.60;;;;;;;;;;5020828;28;20186;-52
2022/04/16 14:17:05;;;;;;;3.73;3.33;;;;;;;;;;5018555;28;20190;-52
2022/04/16 14:19:31;;;;;;;3.10;2.80;;;;;;;;;;5018277;28;20641;-53
2022/04/16 14:21:58;;;;;;;4.63;3.10;;;;;;;;;;5014082;28;20190;-53
2022/04/16 14:24:24;;;;;;;5.13;3.17;;;;;;;;;;5022605;28;20595;-52
2022/04/16 14:26:51;;;;;;;5.43;3.67;;;;;;;;;;5015099;28;20178;-53
2022/04/16 14:29:17;;;;;;;42.50;4.43;;;;;;;;;;5021282;28;20236;-52
2022/04/16 14:31:44;;;;;;;3.90;3.23;;;;;;;;;;5023910;28;20232;-52
2022/04/16 14:34:10;;;;;;;4.87;2.80;;;;;;;;;;5026366;28;20178;-52
2022/04/16 14:36:37;;;;;;;4.60;2.90;;;;;;;;;;5007806;28;21039;-52
2022/04/16 14:39:04;;;;;;;2.70;2.50;;;;;;;;;;5008503;28;20184;-54
2022/04/16 14:41:31;;;;;;;2.60;2.40;;;;;;;;;;5007743;28;20183;-51
2022/04/16 14:44:00;;;;;;;3.00;2.73;;;;;;;;;;5008514;28;20340;-51
2022/04/16 14:46:26;;;;;;;2.70;2.50;;;;;;;;;;5026488;28;20227;-52
2022/04/16 14:48:55;;;;;;;29.10;5.60;;;;;;;;;;5022568;28;20854;-51
2022/04/16 14:51:25;;;;;;;5.73;3.27;;;;;;;;;;5022100;28;20200;-51
2022/04/16 14:53:51;;;;;;;2.53;2.33;;;;;;;;;;5026884;28;20170;-51
2022/04/16 14:56:18;;;;;;;3.10;2.73;;;;;;;;;;5028510;28;20210;-51
2022/04/16 14:58:44;;;;;;;5.87;3.03;;;;;;;;;;5021179;28;20201;-51
2022/04/16 15:01:11;;;;;;;3.50;2.90;;;;;;;;;;5021094;28;20334;-51
2022/04/16 15:03:38;;;;;;;3.13;2.93;;;;;;;;;;5017151;28;20561;-51